createdAt,value
2019-03-03T00:00:29.249Z,12.30
2019-03-03T00:01:29.242Z,8.80
2019-03-03T00:02:29.237Z,14.90
2019-03-03T00:03:29.230Z,13.50
2019-03-03T00:04:29.223Z,13.30
2019-03-03T00:05:29.223Z,10.80
2019-03-03T00:06:29.203Z,9.70
2019-03-03T00:07:29.192Z,9.30
2019-03-03T00:08:29.189Z,10.30
2019-03-03T00:09:29.182Z,11.60
2019-03-03T00:10:29.172Z,9.60
2019-03-03T00:11:29.160Z,11.50
2019-03-03T00:12:29.148Z,15.70
2019-03-03T00:13:29.140Z,12.50
2019-03-03T00:14:29.140Z,9.30
2019-03-03T00:15:29.126Z,9.40
2019-03-03T00:16:29.125Z,9.90
2019-03-03T00:17:29.114Z,10.10
2019-03-03T00:18:29.099Z,9.40
2019-03-03T00:19:29.092Z,10.40
2019-03-03T00:20:29.082Z,16.10
2019-03-03T00:21:29.072Z,11.30
2019-03-03T00:22:29.070Z,10.90
2019-03-03T00:23:29.060Z,15.80
2019-03-03T00:24:29.050Z,11.90
2019-03-03T00:25:29.039Z,13.20
2019-03-03T00:26:29.036Z,13.00
2019-03-03T00:27:29.028Z,11.40
2019-03-03T00:28:29.021Z,10.30
2019-03-03T00:29:29.053Z,13.00
2019-03-03T00:30:29.001Z,10.50
2019-03-03T00:31:28.991Z,9.50
2019-03-03T00:32:28.984Z,12.00
2019-03-03T00:33:28.977Z,12.10
2019-03-03T00:34:28.973Z,13.30
2019-03-03T00:35:28.962Z,9.60
2019-03-03T00:36:28.950Z,10.30
2019-03-03T00:37:28.946Z,11.40
2019-03-03T00:38:28.931Z,13.80
2019-03-03T00:39:28.933Z,11.40
2019-03-03T00:40:28.917Z,15.60
2019-03-03T00:41:28.909Z,10.20
2019-03-03T00:42:28.897Z,9.80
2019-03-03T00:43:28.886Z,12.50
2019-03-03T00:44:28.881Z,7.50
2019-03-03T00:45:28.874Z,10.60
2019-03-03T00:46:28.870Z,9.10
2019-03-03T00:47:28.861Z,9.60
2019-03-03T00:48:28.852Z,8.00
2019-03-03T00:49:28.843Z,10.80
2019-03-03T00:50:28.833Z,10.30
2019-03-03T00:51:28.823Z,11.90
2019-03-03T00:52:28.811Z,8.40
2019-03-03T00:53:28.804Z,8.40
2019-03-03T00:54:28.799Z,10.30
2019-03-03T00:55:28.791Z,7.50
2019-03-03T00:56:28.780Z,9.60
2019-03-03T00:57:28.771Z,6.30
2019-03-03T00:58:28.769Z,6.40
2019-03-03T00:59:28.757Z,8.30
2019-03-03T01:00:28.752Z,8.90
2019-03-03T01:01:28.745Z,11.60
2019-03-03T01:02:28.730Z,7.70
2019-03-03T01:03:28.723Z,12.10
2019-03-03T01:04:28.713Z,11.60
2019-03-03T01:05:28.707Z,13.10
2019-03-03T01:06:28.722Z,8.30
2019-03-03T01:07:28.699Z,11.50
2019-03-03T01:08:28.683Z,9.00
2019-03-03T01:09:28.675Z,8.90
2019-03-03T01:10:28.665Z,7.40
2019-03-03T01:11:28.652Z,8.40
2019-03-03T01:12:28.648Z,6.40
2019-03-03T01:13:28.643Z,7.10
2019-03-03T01:14:28.629Z,8.10
2019-03-03T01:15:28.622Z,6.20
2019-03-03T01:16:28.616Z,9.20
2019-03-03T01:17:28.607Z,10.20
2019-03-03T01:18:28.605Z,9.60
2019-03-03T01:19:28.595Z,9.60
2019-03-03T01:20:28.579Z,10.00
2019-03-03T01:21:28.573Z,8.20
2019-03-03T01:22:28.567Z,11.90
2019-03-03T01:23:28.561Z,9.30
2019-03-03T01:24:28.558Z,8.50
2019-03-03T01:25:28.546Z,8.40
2019-03-03T01:26:28.536Z,5.30
2019-03-03T01:27:28.525Z,11.00
2019-03-03T01:28:28.522Z,8.10
2019-03-03T01:29:28.515Z,7.80
2019-03-03T01:30:28.501Z,8.20
2019-03-03T01:31:28.496Z,4.80
2019-03-03T01:32:28.482Z,6.60
2019-03-03T01:33:28.474Z,7.40
2019-03-03T01:34:28.472Z,6.10
2019-03-03T01:35:28.463Z,6.90
2019-03-03T01:36:28.456Z,8.80
2019-03-03T01:37:28.448Z,11.20
2019-03-03T01:38:28.436Z,6.60
2019-03-03T01:39:28.428Z,7.40
2019-03-03T01:40:28.420Z,8.80
2019-03-03T01:41:28.413Z,13.40
2019-03-03T01:42:28.415Z,11.40
2019-03-03T01:43:28.400Z,5.80
2019-03-03T01:44:28.390Z,6.70
2019-03-03T01:45:28.381Z,13.40
2019-03-03T01:46:28.378Z,9.00
2019-03-03T01:47:28.369Z,7.60
2019-03-03T01:48:28.360Z,10.20
2019-03-03T01:49:28.351Z,8.60
2019-03-03T01:50:28.339Z,10.00
2019-03-03T01:51:28.331Z,10.30
2019-03-03T01:52:28.324Z,8.40
2019-03-03T01:53:28.315Z,9.00
2019-03-03T01:54:28.313Z,6.40
2019-03-03T01:55:28.303Z,9.60
2019-03-03T01:56:28.296Z,5.80
2019-03-03T01:57:28.291Z,9.80
2019-03-03T01:58:28.277Z,10.20
2019-03-03T01:59:28.272Z,8.80
2019-03-03T02:00:28.271Z,11.00
2019-03-03T02:01:28.258Z,7.00
2019-03-03T02:02:28.245Z,7.40
2019-03-03T02:03:28.236Z,6.10
2019-03-03T02:04:28.225Z,11.20
2019-03-03T02:05:28.217Z,13.20
2019-03-03T02:06:28.217Z,7.10
2019-03-03T02:07:28.205Z,8.10
2019-03-03T02:08:28.197Z,7.80
2019-03-03T02:09:28.192Z,13.70
2019-03-03T02:10:28.182Z,8.50
2019-03-03T02:11:28.171Z,7.70
2019-03-03T02:12:28.165Z,10.20
2019-03-03T02:13:28.156Z,8.70
2019-03-03T02:14:28.159Z,11.20
2019-03-03T02:15:28.145Z,9.50
2019-03-03T02:16:28.133Z,10.30
2019-03-03T02:17:28.125Z,6.80
2019-03-03T02:18:28.122Z,8.20
2019-03-03T02:19:28.112Z,7.90
2019-03-03T02:20:28.102Z,7.80
2019-03-03T02:21:28.094Z,9.10
2019-03-03T02:22:28.082Z,7.90
2019-03-03T02:23:28.072Z,8.80
2019-03-03T02:24:28.068Z,11.40
2019-03-03T02:25:28.059Z,8.50
2019-03-03T02:26:28.054Z,12.40
2019-03-03T02:27:28.046Z,8.90
2019-03-03T02:28:28.037Z,9.30
2019-03-03T02:29:28.030Z,9.60
2019-03-03T02:30:28.018Z,8.20
2019-03-03T02:31:28.009Z,15.30
2019-03-03T02:32:28.004Z,14.40
2019-03-03T02:33:27.998Z,20.70
2019-03-03T02:34:27.983Z,12.50
2019-03-03T02:35:27.976Z,13.40
2019-03-03T02:36:28.015Z,11.70
2019-03-03T02:37:27.963Z,12.60
2019-03-03T02:38:27.960Z,10.60
2019-03-03T02:39:27.949Z,10.30
2019-03-03T02:40:27.941Z,7.20
2019-03-03T02:41:27.933Z,12.70
2019-03-03T02:42:27.921Z,9.10
2019-03-03T02:43:27.912Z,9.10
2019-03-03T02:44:27.901Z,9.10
2019-03-03T02:45:27.893Z,11.30
2019-03-03T02:46:27.889Z,11.90
2019-03-03T02:47:27.883Z,12.90
2019-03-03T02:48:27.867Z,11.30
2019-03-03T02:49:27.863Z,9.70
2019-03-03T02:50:27.858Z,7.90
2019-03-03T02:51:27.849Z,12.60
2019-03-03T02:52:27.849Z,15.30
2019-03-03T02:53:27.835Z,9.60
2019-03-03T02:54:27.821Z,9.70
2019-03-03T02:55:27.814Z,14.20
2019-03-03T02:56:27.807Z,12.60
2019-03-03T02:57:27.797Z,10.70
2019-03-03T02:58:27.794Z,10.70
2019-03-03T02:59:27.783Z,11.60
2019-03-03T03:00:27.774Z,10.10
2019-03-03T03:01:27.797Z,12.50
2019-03-03T03:02:27.755Z,10.40
2019-03-03T03:03:27.746Z,10.40
2019-03-03T03:04:27.746Z,9.40
2019-03-03T03:05:27.735Z,10.00
2019-03-03T03:06:27.720Z,10.10
2019-03-03T03:07:27.710Z,8.90
2019-03-03T03:08:27.710Z,10.50
2019-03-03T03:09:27.698Z,13.90
2019-03-03T03:10:27.693Z,10.10
2019-03-03T03:11:27.685Z,11.50
2019-03-03T03:12:27.676Z,13.10
2019-03-03T03:13:27.670Z,8.20
2019-03-03T03:14:27.657Z,12.60
2019-03-03T03:15:27.651Z,11.00
2019-03-03T03:16:27.638Z,12.00
2019-03-03T03:17:27.632Z,11.50
2019-03-03T03:18:27.628Z,13.00
2019-03-03T03:19:27.618Z,10.80
2019-03-03T03:20:27.605Z,8.60
2019-03-03T03:21:27.597Z,8.60
2019-03-03T03:22:27.601Z,15.10
2019-03-03T03:23:27.583Z,10.70
2019-03-03T03:24:27.579Z,8.30
2019-03-03T03:25:27.572Z,14.90
2019-03-03T03:26:27.558Z,12.20
2019-03-03T03:27:27.549Z,13.30
2019-03-03T03:28:27.541Z,10.50
2019-03-03T03:29:27.532Z,10.60
2019-03-03T03:30:27.606Z,9.00
2019-03-03T03:31:27.527Z,13.00
2019-03-03T03:32:27.532Z,10.00
2019-03-03T03:33:27.527Z,9.10
2019-03-03T03:34:27.494Z,13.60
2019-03-03T03:35:27.484Z,12.10
2019-03-03T03:36:27.479Z,8.90
2019-03-03T03:37:27.473Z,14.90
2019-03-03T03:38:27.461Z,8.40
2019-03-03T03:39:27.453Z,13.30
2019-03-03T03:40:27.439Z,9.10
2019-03-03T03:41:27.435Z,10.80
2019-03-03T03:42:27.433Z,12.00
2019-03-03T03:43:27.421Z,11.20
2019-03-03T03:44:27.413Z,12.80
2019-03-03T03:45:27.409Z,15.30
2019-03-03T03:46:27.390Z,9.40
2019-03-03T03:47:27.383Z,13.40
2019-03-03T03:48:27.380Z,14.80
2019-03-03T03:49:27.370Z,12.60
2019-03-03T03:50:27.368Z,7.20
2019-03-03T03:51:27.357Z,7.10
2019-03-03T03:52:27.354Z,10.30
2019-03-03T03:53:27.337Z,10.60
2019-03-03T03:54:27.336Z,10.90
2019-03-03T03:55:27.324Z,9.90
2019-03-03T03:56:27.322Z,11.60
2019-03-03T03:57:27.308Z,15.80
2019-03-03T03:58:27.295Z,9.30
2019-03-03T03:59:27.285Z,10.90
2019-03-03T04:00:27.278Z,9.30
2019-03-03T04:01:27.271Z,13.10
2019-03-03T04:02:27.269Z,12.30
2019-03-03T04:03:27.257Z,12.00
2019-03-03T04:04:27.250Z,13.10
2019-03-03T04:05:27.244Z,14.40
2019-03-03T04:06:27.232Z,10.30
2019-03-03T04:07:27.220Z,11.70
2019-03-03T04:08:27.217Z,13.10
2019-03-03T04:09:27.210Z,12.90
2019-03-03T04:10:27.198Z,13.70
2019-03-03T04:11:27.195Z,16.30
2019-03-03T04:12:27.180Z,14.50
2019-03-03T04:13:27.170Z,10.60
2019-03-03T04:14:27.169Z,13.20
2019-03-03T04:15:27.157Z,16.20
2019-03-03T04:16:27.149Z,11.40
2019-03-03T04:17:27.143Z,14.20
2019-03-03T04:18:27.130Z,11.30
2019-03-03T04:19:27.120Z,15.10
2019-03-03T04:20:27.115Z,11.70
2019-03-03T04:21:27.110Z,11.80
2019-03-03T04:22:27.104Z,12.30
2019-03-03T04:23:27.093Z,16.00
2019-03-03T04:24:27.083Z,15.60
2019-03-03T04:25:27.073Z,12.40
2019-03-03T04:26:27.070Z,15.40
2019-03-03T04:27:27.059Z,17.20
2019-03-03T04:28:27.053Z,13.60
2019-03-03T04:29:27.043Z,11.00
2019-03-03T04:30:27.029Z,13.80
2019-03-03T04:31:27.019Z,13.10
2019-03-03T04:32:27.021Z,11.80
2019-03-03T04:33:27.005Z,11.30
2019-03-03T04:34:27.003Z,17.70
2019-03-03T04:35:26.994Z,9.30
2019-03-03T04:36:26.986Z,13.50
2019-03-03T04:37:26.975Z,11.90
2019-03-03T04:38:26.960Z,14.20
2019-03-03T04:39:26.953Z,12.30
2019-03-03T04:40:26.992Z,14.20
2019-03-03T04:41:26.940Z,12.40
2019-03-03T04:42:26.926Z,13.50
2019-03-03T04:43:26.917Z,11.10
2019-03-03T04:44:26.912Z,12.10
2019-03-03T04:45:26.904Z,16.40
2019-03-03T04:46:26.900Z,13.10
2019-03-03T04:47:26.891Z,11.80
2019-03-03T04:48:26.883Z,10.60
2019-03-03T04:49:26.876Z,11.30
2019-03-03T04:50:26.862Z,9.50
2019-03-03T04:51:26.854Z,12.80
2019-03-03T04:52:26.842Z,14.20
2019-03-03T04:53:26.833Z,13.80
2019-03-03T04:54:26.835Z,13.20
2019-03-03T04:55:26.821Z,10.80
2019-03-03T04:56:26.810Z,13.40
2019-03-03T04:57:26.801Z,12.40
2019-03-03T04:58:26.796Z,10.80
2019-03-03T04:59:26.787Z,13.80
2019-03-03T05:00:26.781Z,16.90
2019-03-03T05:01:26.773Z,11.10
2019-03-03T05:02:26.760Z,11.90
2019-03-03T05:03:26.751Z,15.00
2019-03-03T05:04:26.747Z,11.50
2019-03-03T05:05:26.735Z,14.90
2019-03-03T05:06:26.732Z,12.10
2019-03-03T05:07:26.722Z,10.90
2019-03-03T05:08:26.715Z,12.60
2019-03-03T05:09:26.703Z,11.80
2019-03-03T05:10:26.692Z,15.00
2019-03-03T05:11:28.157Z,13.30
2019-03-03T05:12:26.677Z,9.50
2019-03-03T05:13:26.671Z,9.40
2019-03-03T05:14:26.663Z,14.40
2019-03-03T05:15:26.655Z,13.40
2019-03-03T05:16:26.644Z,10.60
2019-03-03T05:17:26.635Z,9.30
2019-03-03T05:18:26.632Z,10.80
2019-03-03T05:19:26.621Z,14.20
2019-03-03T05:20:26.614Z,14.40
2019-03-03T05:21:26.607Z,11.60
2019-03-03T05:22:26.594Z,12.20
2019-03-03T05:23:26.586Z,12.20
2019-03-03T05:24:33.972Z,12.90
2019-03-03T05:25:26.567Z,13.40
2019-03-03T05:26:26.564Z,13.00
2019-03-03T05:27:26.558Z,13.50
2019-03-03T05:28:26.543Z,10.80
2019-03-03T05:29:26.533Z,11.80
2019-03-03T05:30:26.531Z,13.30
2019-03-03T05:31:26.521Z,9.90
2019-03-03T05:32:26.520Z,14.90
2019-03-03T05:33:26.509Z,12.70
2019-03-03T05:34:26.496Z,11.70
2019-03-03T05:35:26.491Z,16.00
2019-03-03T05:36:26.479Z,14.00
2019-03-03T05:37:26.470Z,12.80
2019-03-03T05:38:26.467Z,13.50
2019-03-03T05:39:26.457Z,15.80
2019-03-03T05:40:26.447Z,13.30
2019-03-03T05:41:26.439Z,11.50
2019-03-03T05:42:26.425Z,10.60
2019-03-03T05:43:26.418Z,11.80
2019-03-03T05:44:26.415Z,12.70
2019-03-03T05:45:26.406Z,11.10
2019-03-03T05:46:26.394Z,13.10
2019-03-03T05:47:26.383Z,12.00
2019-03-03T05:48:26.381Z,13.30
2019-03-03T05:49:26.371Z,17.80
2019-03-03T05:50:26.367Z,9.80
2019-03-03T05:51:26.359Z,12.40
2019-03-03T05:52:26.351Z,10.70
2019-03-03T05:53:26.342Z,10.10
2019-03-03T05:54:26.331Z,14.30
2019-03-03T05:55:26.320Z,13.00
2019-03-03T05:56:26.308Z,11.50
2019-03-03T05:57:26.301Z,15.10
2019-03-03T05:58:26.298Z,13.20
2019-03-03T05:59:26.289Z,9.10
2019-03-03T06:00:26.277Z,15.50
2019-03-03T06:01:26.269Z,12.10
2019-03-03T06:02:26.265Z,9.20
2019-03-03T06:03:26.257Z,10.70
2019-03-03T06:04:26.253Z,16.60
2019-03-03T06:05:26.242Z,11.70
2019-03-03T06:06:26.231Z,13.40
2019-03-03T06:07:26.222Z,14.70
2019-03-03T06:08:26.213Z,12.90
2019-03-03T06:09:26.206Z,12.90
2019-03-03T06:10:26.202Z,9.50
2019-03-03T06:11:26.194Z,10.90
2019-03-03T06:12:26.182Z,11.90
2019-03-03T06:13:26.175Z,14.80
2019-03-03T06:14:26.162Z,14.20
2019-03-03T06:15:26.153Z,12.90
2019-03-03T06:16:26.149Z,14.50
2019-03-03T06:17:26.141Z,12.20
2019-03-03T06:18:26.129Z,16.00
2019-03-03T06:19:26.120Z,8.60
2019-03-03T06:20:27.832Z,12.50
2019-03-03T06:21:26.109Z,11.70
2019-03-03T06:22:26.104Z,13.70
2019-03-03T06:23:26.094Z,14.70
2019-03-03T06:24:26.089Z,18.00
2019-03-03T06:25:26.084Z,8.90
2019-03-03T06:26:26.069Z,13.90
2019-03-03T06:27:26.059Z,13.40
2019-03-03T06:28:26.050Z,15.40
2019-03-03T06:29:26.041Z,15.90
2019-03-03T06:30:26.040Z,10.30
2019-03-03T06:31:26.031Z,12.60
2019-03-03T06:32:26.017Z,16.70
2019-03-03T06:33:26.008Z,17.30
2019-03-03T06:34:26.005Z,15.00
2019-03-03T06:35:25.997Z,18.60
2019-03-03T06:36:25.993Z,14.60
2019-03-03T06:37:25.985Z,15.10
2019-03-03T06:38:25.971Z,14.10
2019-03-03T06:39:25.962Z,13.40
2019-03-03T06:40:25.953Z,14.20
2019-03-03T06:41:25.944Z,14.30
2019-03-03T06:42:25.942Z,14.20
2019-03-03T06:43:25.933Z,8.00
2019-03-03T06:44:25.928Z,13.40
2019-03-03T06:45:25.922Z,13.20
2019-03-03T06:46:25.908Z,13.70
2019-03-03T06:47:25.900Z,18.00
2019-03-03T06:48:25.899Z,11.00
2019-03-03T06:49:25.888Z,16.70
2019-03-03T06:50:25.877Z,9.50
2019-03-03T06:51:25.867Z,16.90
2019-03-03T06:52:25.857Z,15.80
2019-03-03T06:53:25.849Z,11.90
2019-03-03T06:54:25.848Z,11.70
2019-03-03T06:55:25.838Z,12.50
2019-03-03T06:56:25.829Z,16.00
2019-03-03T06:57:25.822Z,12.40
2019-03-03T06:58:25.808Z,11.20
2019-03-03T06:59:25.799Z,11.00
2019-03-03T07:00:25.797Z,15.10
2019-03-03T07:01:25.787Z,12.90
2019-03-03T07:02:25.784Z,18.50
2019-03-03T07:03:25.776Z,16.80
2019-03-03T07:04:25.767Z,14.30
2019-03-03T07:05:26.143Z,15.20
2019-03-03T07:06:25.756Z,17.40
2019-03-03T07:07:25.745Z,19.00
2019-03-03T07:08:25.734Z,16.20
2019-03-03T07:09:25.725Z,10.90
2019-03-03T07:10:25.712Z,14.10
2019-03-03T07:11:25.704Z,14.20
2019-03-03T07:12:25.698Z,12.00
2019-03-03T07:13:25.690Z,11.10
2019-03-03T07:14:25.687Z,12.90
2019-03-03T07:15:25.679Z,13.40
2019-03-03T07:16:26.415Z,15.70
2019-03-03T07:17:25.665Z,14.00
2019-03-03T07:18:25.654Z,17.90
2019-03-03T07:19:25.644Z,12.00
2019-03-03T07:20:25.641Z,15.10
2019-03-03T07:21:25.634Z,13.30
2019-03-03T07:22:25.621Z,10.90
2019-03-03T07:23:25.616Z,11.10
2019-03-03T07:24:25.609Z,15.70
2019-03-03T07:25:25.596Z,19.90
2019-03-03T07:26:25.593Z,12.60
2019-03-03T07:27:25.583Z,11.70
2019-03-03T07:28:25.578Z,12.50
2019-03-03T07:29:25.568Z,15.40
2019-03-03T07:30:25.559Z,11.90
2019-03-03T07:31:25.549Z,14.90
2019-03-03T07:32:25.544Z,11.00
2019-03-03T07:33:25.541Z,12.00
2019-03-03T07:34:25.534Z,12.50
2019-03-03T07:35:25.531Z,17.40
2019-03-03T07:36:25.513Z,22.00
2019-03-03T07:37:25.505Z,18.40
2019-03-03T07:38:25.503Z,15.10
2019-03-03T07:39:25.495Z,13.90
2019-03-03T07:40:25.485Z,11.40
2019-03-03T07:41:25.483Z,13.70
2019-03-03T07:42:25.465Z,15.50
2019-03-03T07:43:25.460Z,10.90
2019-03-03T07:44:25.487Z,10.80
2019-03-03T07:45:25.448Z,12.60
2019-03-03T07:46:25.443Z,14.40
2019-03-03T07:47:25.435Z,15.50
2019-03-03T07:48:25.426Z,12.30
2019-03-03T07:49:25.427Z,13.90
2019-03-03T07:50:25.407Z,12.80
2019-03-03T07:51:25.397Z,19.70
2019-03-03T07:52:25.395Z,10.90
2019-03-03T07:53:25.390Z,16.00
2019-03-03T07:54:25.405Z,10.50
2019-03-03T07:55:25.369Z,9.80
2019-03-03T07:56:25.364Z,10.90
2019-03-03T07:57:25.357Z,18.40
2019-03-03T07:58:25.354Z,14.30
2019-03-03T07:59:25.348Z,16.00
2019-03-03T08:00:25.341Z,10.50
2019-03-03T08:01:25.334Z,12.80
2019-03-03T08:02:25.321Z,10.90
2019-03-03T08:03:25.314Z,13.30
2019-03-03T08:04:25.304Z,8.50
2019-03-03T08:05:25.298Z,11.80
2019-03-03T08:06:25.294Z,9.90
2019-03-03T08:07:25.289Z,7.20
2019-03-03T08:08:25.275Z,11.90
2019-03-03T08:09:25.276Z,10.70
2019-03-03T08:10:25.265Z,11.50
2019-03-03T08:11:25.257Z,11.40
2019-03-03T08:12:25.252Z,10.40
2019-03-03T08:13:25.246Z,12.30
2019-03-03T08:14:25.234Z,11.70
2019-03-03T08:15:25.227Z,10.90
2019-03-03T08:16:25.220Z,11.30
2019-03-03T08:17:25.210Z,12.10
2019-03-03T08:18:25.210Z,10.50
2019-03-03T08:19:25.201Z,14.70
2019-03-03T08:20:25.191Z,8.90
2019-03-03T08:21:25.185Z,12.50
2019-03-03T08:22:25.173Z,11.90
2019-03-03T08:23:25.168Z,10.90
2019-03-03T08:24:25.164Z,8.40
2019-03-03T08:25:25.156Z,7.10
2019-03-03T08:26:25.145Z,8.90
2019-03-03T08:27:25.137Z,8.30
2019-03-03T08:28:25.133Z,9.80
2019-03-03T08:29:25.126Z,11.60
2019-03-03T08:30:25.123Z,11.50
2019-03-03T08:31:25.115Z,14.60
2019-03-03T08:32:25.110Z,9.40
2019-03-03T08:33:25.100Z,11.50
2019-03-03T08:34:25.087Z,13.20
2019-03-03T08:35:25.083Z,13.80
2019-03-03T08:36:25.070Z,13.20
2019-03-03T08:37:25.063Z,11.90
2019-03-03T08:38:25.061Z,9.80
2019-03-03T08:39:25.057Z,16.10
2019-03-03T08:40:25.042Z,8.80
2019-03-03T08:41:25.035Z,9.10
2019-03-03T08:42:25.031Z,13.70
2019-03-03T08:43:25.024Z,10.00
2019-03-03T08:44:25.018Z,10.10
2019-03-03T08:45:25.011Z,12.60
2019-03-03T08:46:25.000Z,8.90
2019-03-03T08:47:24.989Z,11.20
2019-03-03T08:48:24.980Z,11.10
2019-03-03T08:49:24.978Z,9.70
2019-03-03T08:50:24.971Z,12.30
2019-03-03T08:51:24.964Z,9.80
2019-03-03T08:52:24.959Z,7.90
2019-03-03T08:53:24.949Z,7.60
2019-03-03T08:54:24.940Z,10.70
2019-03-03T08:55:24.930Z,9.90
2019-03-03T08:56:24.927Z,10.70
2019-03-03T08:57:24.920Z,8.00
2019-03-03T08:58:24.909Z,12.50
2019-03-03T08:59:24.901Z,11.00
2019-03-03T09:00:24.891Z,8.20
2019-03-03T09:01:24.883Z,9.90
2019-03-03T09:02:24.882Z,10.30
2019-03-03T09:03:24.874Z,9.10
2019-03-03T09:04:24.867Z,10.00
2019-03-03T09:05:24.858Z,10.30
2019-03-03T09:06:24.850Z,11.10
2019-03-03T09:07:24.837Z,9.40
2019-03-03T09:08:24.833Z,10.80
2019-03-03T09:09:24.830Z,11.30
2019-03-03T09:10:25.500Z,11.70
2019-03-03T09:11:24.818Z,6.30
2019-03-03T09:12:24.804Z,9.10
2019-03-03T09:13:24.795Z,9.90
2019-03-03T09:14:24.797Z,10.90
2019-03-03T09:15:24.784Z,10.70
2019-03-03T09:16:24.777Z,8.70
2019-03-03T09:17:24.768Z,7.90
2019-03-03T09:18:24.797Z,6.80
2019-03-03T09:19:24.749Z,8.90
2019-03-03T09:20:24.742Z,8.20
2019-03-03T09:21:24.732Z,8.70
2019-03-03T09:22:24.730Z,8.50
2019-03-03T09:23:24.721Z,8.90
2019-03-03T09:24:24.725Z,9.30
2019-03-03T09:25:24.709Z,8.10
2019-03-03T09:26:24.699Z,8.90
2019-03-03T09:27:24.690Z,8.50
2019-03-03T09:28:24.687Z,7.40
2019-03-03T09:29:24.679Z,9.80
2019-03-03T09:30:24.667Z,8.80
2019-03-03T09:31:24.659Z,5.40
2019-03-03T09:32:24.651Z,9.40
2019-03-03T09:33:24.643Z,9.60
2019-03-03T09:34:24.639Z,9.30
2019-03-03T09:35:24.632Z,8.20
2019-03-03T09:36:24.624Z,11.80
2019-03-03T09:37:24.617Z,12.30
2019-03-03T09:38:24.603Z,12.50
2019-03-03T09:39:24.595Z,7.00
2019-03-03T09:40:24.594Z,5.10
2019-03-03T09:41:24.584Z,11.70
2019-03-03T09:42:24.582Z,8.70
2019-03-03T09:43:24.575Z,9.90
2019-03-03T09:44:24.561Z,6.50
2019-03-03T09:45:24.561Z,6.80
2019-03-03T09:46:24.551Z,8.00
2019-03-03T09:47:24.544Z,9.20
2019-03-03T09:48:24.536Z,11.60
2019-03-03T09:49:24.527Z,10.70
2019-03-03T09:50:24.517Z,8.30
2019-03-03T09:51:24.507Z,6.90
2019-03-03T09:52:24.502Z,9.10
2019-03-03T09:53:24.497Z,9.10
2019-03-03T09:54:24.492Z,12.40
2019-03-03T09:55:24.483Z,8.20
2019-03-03T09:56:24.475Z,8.00
2019-03-03T09:57:24.466Z,9.00
2019-03-03T09:58:24.455Z,8.70
2019-03-03T09:59:24.445Z,8.80
2019-03-03T10:00:24.443Z,8.30
2019-03-03T10:01:24.439Z,6.70
2019-03-03T10:02:24.424Z,8.60
2019-03-03T10:03:24.417Z,8.20
2019-03-03T10:04:24.413Z,6.90
2019-03-03T10:05:24.404Z,11.10
2019-03-03T10:06:24.402Z,7.80
2019-03-03T10:07:24.392Z,6.10
2019-03-03T10:08:24.385Z,9.00
2019-03-03T10:09:24.378Z,8.90
2019-03-03T10:10:24.366Z,6.30
2019-03-03T10:11:24.358Z,6.70
2019-03-03T10:12:24.348Z,6.10
2019-03-03T10:13:24.341Z,10.00
2019-03-03T10:14:24.337Z,9.80
2019-03-03T10:15:24.330Z,7.30
2019-03-03T10:16:24.319Z,6.50
2019-03-03T10:17:24.311Z,6.70
2019-03-03T10:18:24.309Z,8.40
2019-03-03T10:19:24.300Z,7.60
2019-03-03T10:20:24.295Z,6.70
2019-03-03T10:21:24.289Z,8.60
2019-03-03T10:22:24.280Z,5.20
2019-03-03T10:23:24.269Z,5.50
2019-03-03T10:24:24.261Z,5.20
2019-03-03T10:25:24.262Z,4.80
2019-03-03T10:26:24.251Z,5.90
2019-03-03T10:27:24.242Z,7.80
2019-03-03T10:28:24.232Z,7.70
2019-03-03T10:29:24.226Z,4.80
2019-03-03T10:30:24.213Z,3.00
2019-03-03T10:31:24.206Z,3.80
2019-03-03T10:32:24.202Z,9.10
2019-03-03T10:33:24.196Z,5.20
2019-03-03T10:34:24.184Z,7.60
2019-03-03T10:35:24.174Z,5.90
2019-03-03T10:36:24.171Z,5.20
2019-03-03T10:37:24.163Z,7.70
2019-03-03T10:38:24.160Z,3.90
2019-03-03T10:39:24.151Z,6.50
2019-03-03T10:40:24.144Z,5.20
2019-03-03T10:41:24.138Z,3.80
2019-03-03T10:42:24.124Z,6.60
2019-03-03T10:43:24.118Z,4.70
2019-03-03T10:44:24.107Z,5.60
2019-03-03T10:45:24.101Z,5.10
2019-03-03T10:46:24.099Z,3.00
2019-03-03T10:47:24.089Z,3.00
2019-03-03T10:48:24.076Z,5.00
2019-03-03T10:49:24.070Z,3.80
2019-03-03T10:50:24.066Z,6.50
2019-03-03T10:51:24.060Z,6.90
2019-03-03T10:52:24.055Z,3.80
2019-03-03T10:53:24.046Z,3.50
2019-03-03T10:54:24.035Z,3.90
2019-03-03T10:55:24.027Z,5.60
2019-03-03T10:56:24.020Z,4.00
2019-03-03T10:57:24.012Z,5.70
2019-03-03T10:58:24.010Z,4.90
2019-03-03T10:59:24.000Z,5.00
2019-03-03T11:00:23.998Z,2.70
2019-03-03T11:01:23.989Z,4.50
2019-03-03T11:02:23.978Z,5.00
2019-03-03T11:03:23.976Z,3.40
2019-03-03T11:04:23.967Z,4.60
2019-03-03T11:05:23.965Z,3.70
2019-03-03T11:06:23.949Z,5.70
2019-03-03T11:07:23.942Z,3.30
2019-03-03T11:08:23.937Z,6.30
2019-03-03T11:09:23.925Z,4.30
2019-03-03T11:10:23.924Z,4.60
2019-03-03T11:11:23.915Z,4.90
2019-03-03T11:12:23.908Z,3.40
2019-03-03T11:13:24.342Z,3.80
2019-03-03T11:14:23.891Z,4.70
2019-03-03T11:15:23.882Z,3.90
2019-03-03T11:16:23.877Z,3.00
2019-03-03T11:17:23.871Z,2.30
2019-03-03T11:18:23.867Z,3.40
2019-03-03T11:19:23.862Z,2.00
2019-03-03T11:20:23.851Z,3.50
2019-03-03T11:21:23.844Z,2.70
2019-03-03T11:22:23.842Z,2.40
2019-03-03T11:23:23.833Z,3.00
2019-03-03T11:24:23.823Z,2.90
2019-03-03T11:25:23.819Z,3.10
2019-03-03T11:26:23.806Z,4.60
2019-03-03T11:27:23.799Z,3.20
2019-03-03T11:28:24.103Z,3.60
2019-03-03T11:29:23.784Z,2.40
2019-03-03T11:30:23.784Z,4.00
2019-03-03T11:31:23.775Z,2.90
2019-03-03T11:32:23.773Z,3.00
2019-03-03T11:33:23.765Z,2.60
2019-03-03T11:34:23.753Z,2.10
2019-03-03T11:35:23.747Z,2.50
2019-03-03T11:36:23.746Z,3.50
2019-03-03T11:37:23.736Z,5.20
2019-03-03T11:38:23.731Z,3.30
2019-03-03T11:39:23.718Z,3.00
2019-03-03T11:40:23.714Z,3.90
2019-03-03T11:41:23.701Z,1.50
2019-03-03T11:42:23.701Z,5.80
2019-03-03T11:43:23.694Z,2.20
2019-03-03T11:44:23.687Z,2.40
2019-03-03T11:45:23.680Z,1.70
2019-03-03T11:46:23.668Z,2.50
2019-03-03T11:47:23.711Z,2.50
2019-03-03T11:48:23.659Z,4.30
2019-03-03T11:49:23.651Z,2.10
2019-03-03T11:50:23.650Z,2.80
2019-03-03T11:51:23.642Z,2.90
2019-03-03T11:52:23.633Z,2.20
2019-03-03T11:53:23.630Z,2.30
2019-03-03T11:54:23.622Z,2.80
2019-03-03T11:55:23.620Z,3.30
2019-03-03T11:56:23.608Z,2.20
2019-03-03T11:57:23.603Z,4.20
2019-03-03T11:58:23.592Z,1.80
2019-03-03T11:59:23.584Z,1.90
2019-03-03T12:00:23.581Z,3.40
2019-03-03T12:01:23.575Z,3.40
2019-03-03T12:02:23.572Z,4.10
2019-03-03T12:03:23.606Z,1.60
2019-03-03T12:04:23.558Z,2.30
2019-03-03T12:05:23.553Z,3.40
2019-03-03T12:06:23.540Z,2.20
2019-03-03T12:07:23.536Z,4.40
2019-03-03T12:08:23.532Z,2.30
2019-03-03T12:09:23.526Z,2.80
2019-03-03T12:10:23.518Z,2.70
2019-03-03T12:11:23.508Z,3.00
2019-03-03T12:12:23.507Z,2.80
2019-03-03T12:13:23.499Z,4.80
2019-03-03T12:14:23.497Z,3.60
2019-03-03T12:15:23.492Z,3.80
2019-03-03T12:16:23.484Z,3.20
2019-03-03T12:17:23.479Z,2.50
2019-03-03T12:18:24.766Z,6.00
2019-03-03T12:19:23.460Z,4.40
2019-03-03T12:20:23.453Z,3.50
2019-03-03T12:21:23.445Z,4.40
2019-03-03T12:22:23.445Z,2.70
2019-03-03T12:23:23.436Z,3.50
2019-03-03T12:24:23.425Z,2.30
2019-03-03T12:25:23.420Z,3.20
2019-03-03T12:26:23.418Z,4.70
2019-03-03T12:27:23.411Z,3.90
2019-03-03T12:28:23.424Z,3.40
2019-03-03T12:29:23.401Z,2.70
2019-03-03T12:30:23.391Z,3.90
2019-03-03T12:31:23.383Z,1.80
2019-03-03T12:32:23.377Z,4.20
2019-03-03T12:33:23.371Z,5.00
2019-03-03T12:34:23.371Z,2.60
2019-03-03T12:35:23.362Z,2.20
2019-03-03T12:36:23.354Z,4.00
2019-03-03T12:37:23.347Z,2.80
2019-03-03T12:38:23.338Z,4.90
2019-03-03T12:39:23.333Z,4.50
2019-03-03T12:40:23.327Z,3.50
2019-03-03T12:41:23.325Z,4.40
2019-03-03T12:42:23.311Z,4.90
2019-03-03T12:43:23.304Z,3.90
2019-03-03T12:44:23.302Z,4.30
2019-03-03T12:45:23.298Z,4.60
2019-03-03T12:46:23.294Z,4.90
2019-03-03T12:47:23.286Z,5.10
2019-03-03T12:48:23.281Z,4.60
2019-03-03T12:49:23.273Z,3.00
2019-03-03T12:50:23.263Z,5.60
2019-03-03T12:51:23.256Z,3.40
2019-03-03T12:52:23.246Z,2.50
2019-03-03T12:53:23.240Z,3.20
2019-03-03T12:54:23.239Z,2.80
2019-03-03T12:55:23.233Z,4.20
2019-03-03T12:56:23.221Z,4.20
2019-03-03T12:57:23.214Z,4.20
2019-03-03T12:58:23.213Z,5.10
2019-03-03T12:59:23.205Z,6.60
2019-03-03T13:00:23.201Z,2.40
2019-03-03T13:01:23.858Z,5.00
2019-03-03T13:02:23.184Z,4.60
2019-03-03T13:03:23.178Z,5.70
2019-03-03T13:04:23.168Z,2.90